Time;durP1;ratioP1;P1;durP2;ratioP2;P2;SDS_P1;SDS_P2;PMS_P1;PMS_P2;Temp;Humidity;BMP_temperature;BMP_pressure;BME280_temperature;BME280_humidity;BME280_pressure;Samples;Min_cycle;Max_cycle;Signal;HPM_P1;HPM_P2
2024/02/04 00:00:10;;;;;;;1999.90;999.90;;;;;;;0.00;77.70;96590.34;5113451;28;20043;-64
2024/02/04 00:02:38;;;;;;;1999.90;999.90;;;;;;;-0.14;78.22;96588.56;5113602;28;20075;-68
2024/02/04 00:05:06;;;;;;;1999.90;999.90;;;;;;;-0.23;79.45;96582.50;5113619;28;20123;-65
2024/02/04 00:07:33;;;;;;;1999.90;999.90;;;;;;;-0.24;79.10;96588.50;5113632;28;20493;-67
2024/02/04 00:10:00;;;;;;;1999.90;999.90;;;;;;;-0.21;79.80;96588.53;5113647;28;20128;-64
2024/02/04 00:12:27;;;;;;;1999.90;999.90;;;;;;;-0.15;80.29;96588.56;5113398;28;20481;-67
2024/02/04 00:14:56;;;;;;;1999.90;999.90;;;;;;;-0.19;81.28;96597.94;5113422;28;20554;-68
2024/02/04 00:17:23;;;;;;;1999.90;999.90;;;;;;;-0.18;81.25;96593.69;5113389;28;20097;-66
2024/02/04 00:19:50;;;;;;;1999.90;999.90;;;;;;;-0.16;81.07;96594.53;5113317;28;20047;-65
2024/02/04 00:22:19;;;;;;;1999.90;999.90;;;;;;;-0.07;80.10;96596.28;5113322;28;20044;-65
2024/02/04 00:24:46;;;;;;;1999.90;999.90;;;;;;;-0.10;80.07;96596.28;5113297;28;20051;-63
2024/02/04 00:27:14;;;;;;;1999.90;999.90;;;;;;;-0.04;80.19;96588.59;5113019;28;20097;-68
2024/02/04 00:29:41;;;;;;;1999.90;999.90;;;;;;;0.01;80.44;96597.19;5113336;28;20039;-66
2024/02/04 00:32:09;;;;;;;1999.90;999.90;;;;;;;0.04;80.72;96599.78;5113546;28;20458;-66
2024/02/04 00:34:36;;;;;;;1999.90;999.90;;;;;;;0.02;80.59;96608.34;5116283;28;20454;-67
2024/02/04 00:37:04;;;;;;;1999.90;999.90;;;;;;;0.07;81.15;96607.53;5117388;28;20047;-64
2024/02/04 00:39:31;;;;;;;1999.90;999.90;;;;;;;0.13;81.80;96604.13;5117299;28;20400;-66
2024/02/04 00:41:58;;;;;;;1999.90;999.90;;;;;;;0.22;81.79;96609.31;5117439;28;20090;-63
2024/02/04 00:44:25;;;;;;;1999.90;999.90;;;;;;;0.27;80.73;96611.88;5117317;28;20040;-68
2024/02/04 00:46:52;;;;;;;1999.90;999.90;;;;;;;0.29;80.76;96612.75;5117167;28;20051;-65
2024/02/04 00:49:20;;;;;;;1999.90;999.90;;;;;;;0.21;80.13;96611.88;5117109;28;20083;-66
2024/02/04 00:51:47;;;;;;;1999.90;999.90;;;;;;;0.15;80.27;96610.13;5117165;28;20044;-66
2024/02/04 00:54:14;;;;;;;1999.90;999.90;;;;;;;0.06;80.79;96608.34;5117118;28;20044;-65
2024/02/04 00:56:41;;;;;;;1999.90;999.90;;;;;;;0.06;80.76;96608.34;5116923;28;20050;-64
2024/02/04 00:59:08;;;;;;;1999.90;999.90;;;;;;;0.11;80.91;96616.97;5116949;28;20504;-66
2024/02/04 01:01:35;;;;;;;1999.90;999.90;;;;;;;0.18;80.88;96617.00;5117016;28;20085;-66
2024/02/04 01:04:02;;;;;;;1999.90;999.90;;;;;;;0.16;80.93;96616.13;5116947;28;20124;-67
2024/02/04 01:06:31;;;;;;;1999.90;999.90;;;;;;;0.03;81.38;96615.22;5116846;28;20052;-68
2024/02/04 01:08:58;;;;;;;1999.90;999.90;;;;;;;0.06;81.65;96613.50;5116768;28;20481;-67
2024/02/04 01:11:26;;;;;;;1999.90;999.90;;;;;;;-0.08;82.29;96615.16;5116736;28;20046;-67
2024/02/04 01:13:53;;;;;;;1999.90;999.90;;;;;;;-0.13;83.94;96615.13;5116715;28;20048;-68
2024/02/04 01:16:20;;;;;;;1999.90;999.90;;;;;;;-0.14;85.06;96605.69;5116690;28;20100;-67
2024/02/04 01:18:47;;;;;;;1999.90;999.90;;;;;;;-0.06;85.33;96598.88;5116756;28;20480;-64
2024/02/04 01:21:15;;;;;;;1999.90;999.90;;;;;;;-0.07;83.77;96596.28;5116421;28;20139;-65
2024/02/04 01:23:43;;;;;;;1999.90;999.90;;;;;;;-0.07;83.32;96598.88;5116476;28;20477;-65
2024/02/04 01:26:10;;;;;;;1999.90;999.90;;;;;;;-0.02;83.01;96597.19;5116299;28;20486;-66
2024/02/04 01:28:37;;;;;;;1999.90;999.90;;;;;;;0.06;82.63;96594.66;5116431;28;20043;-65
2024/02/04 01:31:04;;;;;;;1999.90;999.90;;;;;;;0.08;82.78;96593.81;5116403;28;20131;-65
2024/02/04 01:33:32;;;;;;;1999.90;999.90;;;;;;;0.07;83.09;96581.81;5116364;28;20485;-62
2024/02/04 01:35:59;;;;;;;1999.90;999.90;;;;;;;0.08;83.09;96585.22;5116318;28;20043;-67
2024/02/04 01:38:26;;;;;;;1999.90;999.90;;;;;;;0.10;83.12;96571.53;5116582;28;20074;-66
2024/02/04 01:40:54;;;;;;;1999.90;999.90;;;;;;;0.13;82.18;96580.97;5116075;28;20047;-66
2024/02/04 01:43:22;;;;;;;1999.90;999.90;;;;;;;0.15;82.32;96586.97;5116108;28;20044;-64
2024/02/04 01:45:51;;;;;;;1999.90;999.90;;;;;;;0.21;82.49;96574.13;5114692;28;20075;-68
2024/02/04 01:48:18;;;;;;;1999.90;999.90;;;;;;;0.22;82.71;96572.41;5115942;28;20047;-65
2024/02/04 01:50:46;;;;;;;1999.90;999.90;;;;;;;0.28;83.19;96577.59;5115889;28;20500;-66
2024/02/04 01:53:14;;;;;;;1999.90;999.90;;;;;;;0.33;82.42;96573.31;5115988;28;20050;-65
2024/02/04 01:55:41;;;;;;;1999.90;999.90;;;;;;;0.33;82.15;96573.31;5116109;28;20047;-65
2024/02/04 01:58:10;;;;;;;1999.90;999.90;;;;;;;0.30;82.47;96565.56;5116002;28;20113;-66
2024/02/04 02:00:37;;;;;;;1999.90;999.90;;;;;;;0.14;83.28;96558.66;5115708;28;20132;-63
2024/02/04 02:03:07;;;;;;;1999.90;999.90;;;;;;;0.09;83.06;96546.63;5115931;28;20054;-66
2024/02/04 02:05:34;;;;;;;1999.90;999.90;;;;;;;-0.05;83.50;96543.16;5115824;28;20144;-65
2024/02/04 02:08:01;;;;;;;1999.90;999.90;;;;;;;-0.22;83.49;96536.22;5115760;28;20048;-66
2024/02/04 02:10:28;;;;;;;1999.90;999.90;;;;;;;-0.28;83.89;96533.63;5115583;28;20052;-64
2024/02/04 02:13:00;;;;;;;1999.90;999.90;;;;;;;-0.20;84.55;96538.81;5115482;28;20142;-67
2024/02/04 02:15:36;;;;;;;1999.90;999.90;;;;;;;-0.20;85.10;96538.81;5115501;28;20051;-69
2024/02/04 02:18:06;;;;;;;1999.90;999.90;;;;;;;-0.11;84.99;96543.13;5115482;28;20091;-65
2024/02/04 02:20:42;;;;;;;1999.90;999.90;;;;;;;-0.02;85.27;96546.63;5115345;28;20039;-66
2024/02/04 02:23:15;;;;;;;1999.90;999.90;;;;;;;-0.03;84.33;96544.03;5115396;28;20044;-67
2024/02/04 02:25:46;;;;;;;1999.90;999.90;;;;;;;-0.02;84.77;96550.88;5115483;28;20094;-65
2024/02/04 02:28:13;;;;;;;1999.90;999.90;;;;;;;-0.09;84.67;96562.00;5115395;28;20047;-66
2024/02/04 02:30:40;;;;;;;1999.90;999.90;;;;;;;-0.07;84.85;96558.56;5115148;28;20117;-62
2024/02/04 02:33:08;;;;;;;1999.90;999.90;;;;;;;-0.15;84.56;96548.25;5115194;28;20416;-67
2024/02/04 02:35:35;;;;;;;1999.90;999.90;;;;;;;-0.16;85.95;96549.13;5115100;28;20075;-63
2024/02/04 02:38:16;;;;;;;1999.90;999.90;;;;;;;-0.24;86.38;96547.34;5115163;28;20082;-68
2024/02/04 02:40:48;;;;;;;1999.90;999.90;;;;;;;-0.25;86.57;96538.78;5114881;28;20501;-65
2024/02/04 02:43:17;;;;;;;1999.90;999.90;;;;;;;-0.15;86.00;96547.41;5115021;28;20051;-63
2024/02/04 02:45:45;;;;;;;1999.90;999.90;;;;;;;-0.19;85.87;96548.22;5114968;28;20043;-67
2024/02/04 02:48:13;;;;;;;1999.90;999.90;;;;;;;-0.14;86.18;96543.97;5114932;28;20096;-66
2024/02/04 02:50:40;;;;;;;1999.90;999.90;;;;;;;-0.29;86.06;96548.19;5114889;28;20047;-66
2024/02/04 02:53:07;;;;;;;1999.90;999.90;;;;;;;-0.30;87.33;96545.63;5114595;28;20506;-66
2024/02/04 02:55:34;;;;;;;1999.90;999.90;;;;;;;-0.30;86.88;96546.47;5114543;28;20051;-62
2024/02/04 02:58:02;;;;;;;1999.90;999.90;;;;;;;-0.24;87.47;96534.50;5114290;28;20047;-67
2024/02/04 03:00:29;;;;;;;1999.90;999.90;;;;;;;-0.24;87.53;96545.63;5114562;28;20048;-65
2024/02/04 03:02:56;;;;;;;1999.90;999.90;;;;;;;-0.18;86.90;96539.69;5114541;28;20051;-63
2024/02/04 03:05:23;;;;;;;1999.90;999.90;;;;;;;-0.14;86.12;96536.25;5114405;28;20044;-65
2024/02/04 03:07:50;;;;;;;1999.90;999.90;;;;;;;-0.13;86.50;96536.28;5114544;28;20407;-64
2024/02/04 03:10:18;;;;;;;1999.90;999.90;;;;;;;-0.18;86.71;96535.38;5114442;28;20047;-65
2024/02/04 03:12:45;;;;;;;1999.90;999.90;;;;;;;-0.15;86.25;96540.53;5114361;28;20047;-62
2024/02/04 03:15:14;;;;;;;1999.90;999.90;;;;;;;-0.07;86.40;96535.44;5114263;28;20057;-63
2024/02/04 03:17:41;;;;;;;1999.90;999.90;;;;;;;-0.12;85.92;96539.69;5114204;28;20087;-66
2024/02/04 03:20:09;;;;;;;1999.90;999.90;;;;;;;-0.15;86.18;96539.69;5114609;28;20058;-62
2024/02/04 03:22:36;;;;;;;1999.90;999.90;;;;;;;-0.06;86.63;96544.00;5114142;28;20058;-66
2024/02/04 03:25:04;;;;;;;1999.90;999.90;;;;;;;-0.07;86.32;96547.41;5114473;28;20050;-65
2024/02/04 03:27:30;;;;;;;1999.90;999.90;;;;;;;-0.15;86.14;96532.81;5114014;28;20079;-66
2024/02/04 03:29:57;;;;;;;1999.90;999.90;;;;;;;-0.13;87.78;96535.41;5114083;28;20512;-67
2024/02/04 03:32:26;;;;;;;1999.90;999.90;;;;;;;-0.13;87.67;96537.97;5114442;28;20046;-65
2024/02/04 03:34:53;;;;;;;1999.90;999.90;;;;;;;-0.03;87.12;96533.75;5114094;28;20039;-65
2024/02/04 03:37:20;;;;;;;1999.90;999.90;;;;;;;0.06;87.10;96546.63;5114020;28;20550;-66
2024/02/04 03:39:47;;;;;;;1999.90;999.90;;;;;;;0.10;85.83;96532.94;5113908;28;20043;-66
2024/02/04 03:42:14;;;;;;;1999.90;999.90;;;;;;;-0.05;85.74;96528.59;5113871;28;20408;-65
2024/02/04 03:44:41;;;;;;;1999.90;999.90;;;;;;;-0.14;85.99;96520.84;5113812;28;20054;-67
2024/02/04 03:47:08;;;;;;;1999.90;999.90;;;;;;;-0.23;86.31;96515.63;5113771;28;20236;-65
2024/02/04 03:49:36;;;;;;;1999.90;999.90;;;;;;;-0.28;86.74;96503.63;5113704;28;20059;-67
2024/02/04 03:52:04;;;;;;;1999.90;999.90;;;;;;;-0.24;88.79;96508.78;5113634;28;20489;-68
2024/02/04 03:54:31;;;;;;;1999.90;999.90;;;;;;;-0.04;90.67;96511.44;5113699;28;20092;-66
2024/02/04 03:56:58;;;;;;;1999.90;999.90;;;;;;;0.02;90.32;96505.44;5113768;28;20101;-63
2024/02/04 03:59:25;;;;;;;1999.90;999.90;;;;;;;-0.05;89.29;96499.44;5113747;28;20047;-65
2024/02/04 04:01:54;;;;;;;1999.90;999.90;;;;;;;0.10;91.22;96494.34;5113538;28;20562;-67
2024/02/04 04:04:22;;;;;;;1999.90;999.90;;;;;;;0.22;91.36;96503.81;5113509;28;20051;-66
2024/02/04 04:06:50;;;;;;;1999.90;999.90;;;;;;;0.33;91.30;96513.25;5113456;28;20485;-65
2024/02/04 04:09:17;;;;;;;1999.90;999.90;;;;;;;0.41;91.59;96508.97;5112890;28;20554;-66
2024/02/04 04:11:44;;;;;;;1999.90;999.90;;;;;;;0.46;90.71;96514.13;5113586;28;20383;-64
2024/02/04 04:14:11;;;;;;;1999.90;999.90;;;;;;;0.52;89.47;96513.28;5113655;28;20082;-65
2024/02/04 04:16:38;;;;;;;1999.90;999.90;;;;;;;0.56;89.32;96517.56;5113681;28;20051;-66
2024/02/04 04:19:05;;;;;;;1999.90;999.90;;;;;;;0.60;89.34;96520.16;5113326;28;20398;-68
2024/02/04 04:21:32;;;;;;;1999.90;999.90;;;;;;;0.63;88.65;96516.72;5113349;28;20405;-65
2024/02/04 04:24:01;;;;;;;1999.90;999.90;;;;;;;0.58;88.21;96510.72;5113382;28;20048;-69
2024/02/04 04:26:28;;;;;;;1999.90;999.90;;;;;;;0.60;88.77;96514.16;5113328;28;20052;-66
2024/02/04 04:28:56;;;;;;;1999.90;999.90;;;;;;;0.58;89.61;96524.47;5113364;28;20043;-68
2024/02/04 04:31:23;;;;;;;1999.90;999.90;;;;;;;0.60;90.45;96530.47;5113297;28;20055;-65
2024/02/04 04:33:52;;;;;;;1999.90;999.90;;;;;;;0.69;90.24;96521.88;5113282;28;20048;-67
2024/02/04 04:36:19;;;;;;;1999.90;999.90;;;;;;;0.60;89.53;96503.88;5113283;28;20054;-65
2024/02/04 04:38:49;;;;;;;1999.90;999.90;;;;;;;0.60;89.84;96507.28;5113175;28;20044;-66
2024/02/04 04:41:18;;;;;;;1999.90;999.90;;;;;;;0.69;89.50;96503.84;5113203;28;20044;-68
2024/02/04 04:43:45;;;;;;;1999.90;999.90;;;;;;;0.63;88.86;96503.84;5113188;28;20048;-67
2024/02/04 04:46:12;;;;;;;1999.90;999.90;;;;;;;0.67;89.14;96510.75;5113078;28;20087;-64
2024/02/04 04:48:39;;;;;;;1999.90;999.90;;;;;;;0.74;89.13;96507.31;5113057;28;20093;-66
2024/02/04 04:51:09;;;;;;;1999.90;999.90;;;;;;;0.81;88.25;96502.16;5112974;28;20086;-66
2024/02/04 04:53:36;;;;;;;1999.90;999.90;;;;;;;0.69;87.84;96493.56;5112969;28;20044;-67
2024/02/04 04:56:03;;;;;;;1999.90;999.90;;;;;;;0.56;88.61;96500.41;5113228;28;20048;-65
2024/02/04 04:58:31;;;;;;;1999.90;999.90;;;;;;;0.63;88.38;96532.16;5113109;28;20153;-67
2024/02/04 05:00:58;;;;;;;1999.90;999.90;;;;;;;0.67;88.13;96515.03;5112992;28;20052;-65
2024/02/04 05:03:25;;;;;;;1999.90;999.90;;;;;;;0.63;88.90;96524.44;5112897;28;20520;-65
2024/02/04 05:05:52;;;;;;;1999.90;999.90;;;;;;;0.67;89.20;96523.63;5113175;28;20050;-66
2024/02/04 05:08:20;;;;;;;1999.90;999.90;;;;;;;0.68;89.46;96517.59;5113231;28;20486;-66
2024/02/04 05:10:47;;;;;;;1999.90;999.90;;;;;;;0.67;89.88;96528.75;5112902;28;20473;-64
2024/02/04 05:13:14;;;;;;;1999.90;999.90;;;;;;;0.74;89.30;96527.03;5112960;28;20043;-67
2024/02/04 05:15:42;;;;;;;1999.90;999.90;;;;;;;0.78;88.58;96525.34;5113004;28;20048;-67
2024/02/04 05:18:09;;;;;;;1999.90;999.90;;;;;;;0.78;87.27;96538.22;5112910;28;20071;-66
2024/02/04 05:20:36;;;;;;;1999.90;999.90;;;;;;;0.64;86.50;96518.47;5115460;28;20562;-66
2024/02/04 05:23:04;;;;;;;1999.90;999.90;;;;;;;0.65;86.46;96520.16;5116520;28;20134;-64
2024/02/04 05:25:31;;;;;;;1999.90;999.90;;;;;;;0.53;87.09;96525.28;5116580;28;20130;-65
2024/02/04 05:27:58;;;;;;;1999.90;999.90;;;;;;;0.41;89.32;96524.41;5116422;28;20099;-68
2024/02/04 05:30:25;;;;;;;1999.90;999.90;;;;;;;0.41;90.67;96523.56;5116516;28;20122;-64
2024/02/04 05:32:54;;;;;;;1999.90;999.90;;;;;;;0.52;90.14;96539.03;5116352;28;20100;-66
2024/02/04 05:35:21;;;;;;;1999.90;999.90;;;;;;;0.54;89.34;96548.47;5116391;28;20044;-67
2024/02/04 05:37:49;;;;;;;1999.90;999.90;;;;;;;0.58;89.13;96559.66;5116283;28;20554;-66
2024/02/04 05:40:18;;;;;;;1999.90;999.90;;;;;;;0.56;89.10;96566.50;5116457;28;20050;-68
2024/02/04 05:42:45;;;;;;;1999.90;999.90;;;;;;;0.54;89.10;96553.63;5116191;28;20044;-66
2024/02/04 05:45:13;;;;;;;1999.90;999.90;;;;;;;0.59;89.04;96554.50;5116087;28;20345;-66
2024/02/04 05:47:43;;;;;;;1999.90;999.90;;;;;;;0.66;88.13;96564.81;5116299;28;20051;-64
2024/02/04 05:50:12;;;;;;;1999.90;999.90;;;;;;;0.68;88.23;96560.50;5116097;28;20055;-66
2024/02/04 05:52:40;;;;;;;1999.90;999.90;;;;;;;0.56;87.95;96575.09;5116141;28;20052;-65
2024/02/04 05:55:08;;;;;;;1999.90;999.90;;;;;;;0.60;88.64;96575.97;5116286;28;20074;-67
2024/02/04 05:57:35;;;;;;;1999.90;999.90;;;;;;;0.61;88.81;96573.38;5116173;28;20556;-67
2024/02/04 06:00:02;;;;;;;1999.90;999.90;;;;;;;0.66;88.74;96588.81;5115941;28;20058;-67
2024/02/04 06:02:29;;;;;;;1999.90;999.90;;;;;;;0.75;89.44;96581.13;5115978;28;20055;-63
2024/02/04 06:04:56;;;;;;;1999.90;999.90;;;;;;;0.85;89.19;96570.84;5115782;28;20503;-65
2024/02/04 06:07:25;;;;;;;1999.90;999.90;;;;;;;0.86;89.39;96576.00;5115782;28;20043;-64
2024/02/04 06:09:52;;;;;;;1999.90;999.90;;;;;;;0.99;89.97;96569.13;5115665;28;20130;-67
2024/02/04 06:12:19;;;;;;;1999.90;999.90;;;;;;;1.12;90.85;96569.16;5115533;28;20498;-66
2024/02/04 06:14:46;;;;;;;1999.90;999.90;;;;;;;1.27;91.21;96570.88;5115495;28;20090;-67
2024/02/04 06:17:13;;;;;;;1999.90;999.90;;;;;;;1.48;92.97;96557.06;5115381;28;20083;-68
2024/02/04 06:19:40;;;;;;;1999.90;999.90;;;;;;;1.68;94.01;96553.59;5115534;28;20051;-68
2024/02/04 06:22:07;;;;;;;1999.90;999.90;;;;;;;2.16;95.54;96547.41;5115546;28;20044;-67
2024/02/04 06:24:36;;;;;;;1999.90;999.90;;;;;;;2.59;95.36;96548.06;5115414;28;20467;-65
2024/02/04 06:27:04;;;;;;;1999.90;999.90;;;;;;;3.04;90.83;96542.56;5115264;28;20043;-67
2024/02/04 06:29:31;;;;;;;1999.90;999.90;;;;;;;3.11;87.21;96530.47;5115279;28;20051;-68
2024/02/04 06:31:58;;;;;;;1999.90;999.90;;;;;;;3.05;84.79;96540.84;5114480;28;20065;-68
2024/02/04 06:34:25;;;;;;;1999.90;999.90;;;;;;;3.36;87.25;96548.34;5115179;28;20043;-66
2024/02/04 06:36:53;;;;;;;1999.90;999.90;;;;;;;3.70;87.48;96536.81;5115068;28;20052;-65
2024/02/04 06:39:20;;;;;;;1999.90;999.90;;;;;;;4.14;86.23;96538.03;5115187;28;20044;-66
2024/02/04 06:41:48;;;;;;;1999.90;999.90;;;;;;;4.46;85.40;96541.09;5114900;28;20047;-67
2024/02/04 06:44:16;;;;;;;1999.90;999.90;;;;;;;4.84;82.71;96536.22;5115058;28;20478;-65
2024/02/04 06:46:43;;;;;;;1999.90;999.90;;;;;;;5.15;82.12;96543.50;5114938;28;20126;-65
2024/02/04 06:49:10;;;;;;;1999.90;999.90;;;;;;;5.41;80.40;96544.81;5114863;28;20383;-67
2024/02/04 06:51:37;;;;;;;1999.90;999.90;;;;;;;5.57;79.74;96547.16;5114839;28;20052;-67
2024/02/04 06:54:05;;;;;;;1999.90;999.90;;;;;;;5.75;78.91;96547.69;5114712;28;20105;-64
2024/02/04 06:56:32;;;;;;;1999.90;999.90;;;;;;;5.92;77.83;96556.00;5114692;28;20101;-66
2024/02/04 06:59:02;;;;;;;1999.90;999.90;;;;;;;6.07;77.28;96564.41;5114824;28;20053;-67
2024/02/04 07:01:29;;;;;;;1999.90;999.90;;;;;;;6.21;76.18;96558.94;5114616;28;20061;-68
2024/02/04 07:03:56;;;;;;;1999.90;999.90;;;;;;;6.40;75.08;96554.22;5114486;28;20445;-67
2024/02/04 07:06:24;;;;;;;1999.90;999.90;;;;;;;6.55;75.52;96552.19;5114559;28;20040;-67
2024/02/04 07:08:52;;;;;;;1999.90;999.90;;;;;;;6.78;74.64;96554.28;5114559;28;20048;-63
2024/02/04 07:11:19;;;;;;;1999.90;999.90;;;;;;;7.01;72.77;96575.47;5114196;28;20047;-66
2024/02/04 07:13:47;;;;;;;1999.90;999.90;;;;;;;7.26;72.17;96562.72;5114533;28;20086;-64
2024/02/04 07:16:16;;;;;;;1999.90;999.90;;;;;;;7.57;70.13;96571.50;5114529;28;20482;-68
2024/02/04 07:18:43;;;;;;;1999.90;999.90;;;;;;;7.75;70.22;96578.00;5114513;28;20497;-67
2024/02/04 07:21:10;;;;;;;1999.90;999.90;;;;;;;7.94;68.97;96570.53;5114479;28;20131;-63
2024/02/04 07:23:37;;;;;;;1999.90;999.90;;;;;;;8.03;67.87;96581.59;5114240;28;20070;-67
2024/02/04 07:26:05;;;;;;;1999.90;999.90;;;;;;;8.02;67.73;96579.88;5113898;28;20485;-68
2024/02/04 07:28:33;;;;;;;1999.90;999.90;;;;;;;8.12;67.81;96586.56;5114160;28;20143;-67
2024/02/04 07:31:01;;;;;;;1999.90;999.90;;;;;;;8.16;67.95;96582.97;5114031;28;20059;-66
2024/02/04 07:33:32;;;;;;;1999.90;999.90;;;;;;;8.17;66.84;96583.81;5114017;28;20051;-67
2024/02/04 07:36:00;;;;;;;1999.90;999.90;;;;;;;8.21;67.35;96581.09;5114162;28;20057;-66
2024/02/04 07:38:28;;;;;;;1999.90;999.90;;;;;;;8.25;66.59;96586.22;5113940;28;20047;-66
2024/02/04 07:40:58;;;;;;;1999.90;999.90;;;;;;;8.28;67.20;96589.59;5114069;28;20135;-64
2024/02/04 07:43:25;;;;;;;1999.90;999.90;;;;;;;8.32;66.71;96591.22;5113924;28;20055;-67
2024/02/04 07:45:52;;;;;;;1999.90;999.90;;;;;;;8.35;66.67;96592.88;5113748;28;20100;-66
2024/02/04 07:48:20;;;;;;;1999.90;999.90;;;;;;;8.25;67.22;96604.47;5113873;28;20130;-68
2024/02/04 07:50:49;;;;;;;1999.90;999.90;;;;;;;8.21;67.53;96588.06;5114017;28;20123;-67
2024/02/04 07:53:16;;;;;;;1999.90;999.90;;;;;;;8.21;67.38;96601.06;5113824;28;20493;-64
2024/02/04 07:55:43;;;;;;;1999.90;999.90;;;;;;;8.19;67.62;96589.88;5113620;28;20056;-67
2024/02/04 07:58:10;;;;;;;1999.90;999.90;;;;;;;8.19;67.65;96576.84;5113727;28;20108;-69
2024/02/04 08:00:37;;;;;;;1999.90;999.90;;;;;;;8.24;68.03;96579.31;5113958;28;20528;-66
2024/02/04 08:03:07;;;;;;;1999.90;999.90;;;;;;;8.21;67.89;96588.06;5113430;28;20076;-67
2024/02/04 08:05:35;;;;;;;1999.90;999.90;;;;;;;8.17;67.56;96578.63;5113526;28;20079;-66
2024/02/04 08:08:05;;;;;;;1999.90;999.90;;;;;;;8.18;67.83;96577.72;5113830;28;20044;-65
2024/02/04 08:10:32;;;;;;;1999.90;999.90;;;;;;;8.19;68.20;96571.63;5113597;28;20048;-66
2024/02/04 08:12:59;;;;;;;1999.90;999.90;;;;;;;8.21;67.83;96583.69;5113524;28;20127;-66
2024/02/04 08:15:26;;;;;;;1999.90;999.90;;;;;;;8.26;67.47;96572.28;5113434;28;20118;-66
2024/02/04 08:17:53;;;;;;;1999.90;999.90;;;;;;;8.31;66.19;96581.69;5113551;28;20043;-66
2024/02/04 08:20:21;;;;;;;1999.90;999.90;;;;;;;8.32;66.15;96575.59;5113654;28;20048;-67
2024/02/04 08:22:48;;;;;;;1999.90;999.90;;;;;;;8.42;65.56;96575.31;5113336;28;20101;-67
2024/02/04 08:25:17;;;;;;;1999.90;999.90;;;;;;;8.47;65.35;96579.50;5113707;28;20043;-64
2024/02/04 08:27:44;;;;;;;1999.90;999.90;;;;;;;8.59;65.13;96569.66;5113417;28;20122;-65
2024/02/04 08:30:11;;;;;;;1999.90;999.90;;;;;;;8.68;64.29;96581.56;5113453;28;20079;-67
2024/02/04 08:32:39;;;;;;;1999.90;999.90;;;;;;;8.70;62.27;96580.59;5113399;28;20122;-67
2024/02/04 08:35:07;;;;;;;1999.90;999.90;;;;;;;8.76;61.86;96581.34;5113337;28;20498;-67
2024/02/04 08:37:35;;;;;;;1999.90;999.90;;;;;;;8.86;61.21;96577.53;5113406;28;20058;-64
2024/02/04 08:40:03;;;;;;;1999.90;999.90;;;;;;;8.98;60.24;96581.53;5113256;28;20044;-68
2024/02/04 08:42:31;;;;;;;1999.90;999.90;;;;;;;9.09;61.02;96579.44;5113089;28;20083;-66
2024/02/04 08:44:59;;;;;;;1999.90;999.90;;;;;;;9.21;60.97;96579.94;5113067;28;20401;-68
2024/02/04 08:47:26;;;;;;;1999.90;999.90;;;;;;;9.27;59.05;96563.25;5113218;28;20126;-66
2024/02/04 08:49:54;;;;;;;1999.90;999.90;;;;;;;9.32;57.78;96563.94;5113280;28;20043;-67
2024/02/04 08:52:22;;;;;;;1999.90;999.90;;;;;;;9.43;57.90;96574.91;5113201;28;20131;-68
2024/02/04 08:54:49;;;;;;;1999.90;999.90;;;;;;;9.52;59.07;96559.81;5114743;28;20120;-66
2024/02/04 08:57:17;;;;;;;1999.90;999.90;;;;;;;9.50;60.11;96564.22;5117186;28;20047;-67
2024/02/04 08:59:46;;;;;;;1999.90;999.90;;;;;;;9.59;60.81;96571.75;5117202;28;20048;-68
2024/02/04 09:02:13;;;;;;;1999.90;999.90;;;;;;;9.68;60.86;96562.75;5116933;28;20044;-64
2024/02/04 09:04:41;;;;;;;1999.90;999.90;;;;;;;9.78;60.05;96555.47;5117069;28;20143;-66
2024/02/04 09:07:08;;;;;;;1999.90;999.90;;;;;;;9.89;59.73;96563.78;5116982;28;20091;-68
2024/02/04 09:09:36;;;;;;;1999.90;999.90;;;;;;;9.98;59.12;96571.31;5116699;28;20051;-66
2024/02/04 09:12:04;;;;;;;1999.90;999.90;;;;;;;10.08;58.44;96563.97;5116773;28;20048;-66
2024/02/04 09:14:31;;;;;;;1999.90;999.90;;;;;;;10.19;58.70;96566.22;5116671;28;20113;-64
2024/02/04 09:17:04;;;;;;;1999.90;999.90;;;;;;;10.35;57.37;96574.34;5116883;28;20123;-66
2024/02/04 09:19:32;;;;;;;1999.90;999.90;;;;;;;10.48;55.32;96589.63;5116624;28;20081;-67
2024/02/04 09:22:01;;;;;;;1999.90;999.90;;;;;;;10.55;56.19;96596.34;5117010;28;20047;-67
2024/02/04 09:24:28;;;;;;;1999.90;999.90;;;;;;;10.70;55.01;96608.00;5116589;28;20124;-64
2024/02/04 09:26:55;;;;;;;1999.90;999.90;;;;;;;10.83;54.38;96605.75;5116615;28;20051;-65
2024/02/04 09:29:22;;;;;;;1999.90;999.90;;;;;;;10.89;53.57;96607.28;5116368;28;20074;-67
2024/02/04 09:31:51;;;;;;;1999.90;999.90;;;;;;;10.99;53.35;96592.94;5116629;28;20126;-67
2024/02/04 09:34:20;;;;;;;1999.90;999.90;;;;;;;11.09;53.11;96603.91;5116544;28;20546;-64
2024/02/04 09:36:55;;;;;;;1999.90;999.90;;;;;;;11.20;52.72;96594.78;5116351;28;20050;-65
2024/02/04 09:39:23;;;;;;;1999.90;999.90;;;;;;;11.32;49.37;96594.28;5116214;28;20047;-67
2024/02/04 09:41:50;;;;;;;1999.90;999.90;;;;;;;11.40;49.68;96585.25;5116277;28;20047;-62
2024/02/04 09:44:19;;;;;;;1999.90;999.90;;;;;;;11.43;50.31;96575.50;5116290;28;20051;-65
2024/02/04 09:46:46;;;;;;;1999.90;999.90;;;;;;;11.57;50.43;96561.84;5116096;28;20054;-68
2024/02/04 09:49:14;;;;;;;1999.90;999.90;;;;;;;11.68;48.40;96568.41;5116062;28;20048;-64
2024/02/04 09:51:43;;;;;;;1999.90;999.90;;;;;;;11.73;49.17;96559.44;5116358;28;20101;-64
2024/02/04 09:54:12;;;;;;;1999.90;999.90;;;;;;;11.75;49.02;96568.06;5115975;28;20100;-65
2024/02/04 09:56:41;;;;;;;1999.90;999.90;;;;;;;11.79;48.20;96567.94;5116037;28;20069;-65
2024/02/04 09:59:08;;;;;;;1999.90;999.90;;;;;;;11.82;47.43;96555.56;5116031;28;20047;-64
2024/02/04 10:01:36;;;;;;;1999.90;999.90;;;;;;;11.86;47.82;96566.78;5115853;28;20481;-64
2024/02/04 10:04:04;;;;;;;1999.90;999.90;;;;;;;11.88;48.17;96559.69;5115989;28;20044;-65
2024/02/04 10:06:32;;;;;;;1999.90;999.90;;;;;;;11.77;48.36;96565.38;5115065;28;20050;-66
2024/02/04 10:09:02;;;;;;;1999.90;999.90;;;;;;;11.73;48.10;96566.44;5115931;28;20074;-64
2024/02/04 10:11:29;;;;;;;1999.90;999.90;;;;;;;11.52;47.69;96566.41;5115638;28;20127;-67
2024/02/04 10:13:57;;;;;;;1999.90;999.90;;;;;;;11.56;47.60;96569.78;5115744;28;20448;-68
2024/02/04 10:16:24;;;;;;;1999.90;999.90;;;;;;;11.42;47.37;96560.72;5115665;28;20102;-67
2024/02/04 10:18:53;;;;;;;1999.90;999.90;;;;;;;11.35;47.62;96556.66;5115566;28;20048;-63
2024/02/04 10:21:23;;;;;;;1999.90;999.90;;;;;;;11.26;47.41;96573.59;5115545;28;20039;-67
2024/02/04 10:23:51;;;;;;;1999.90;999.90;;;;;;;11.20;47.83;96569.44;5115338;28;20052;-65
2024/02/04 10:26:21;;;;;;;1999.90;999.90;;;;;;;11.09;47.66;96579.50;5115173;28;20496;-63
2024/02/04 10:28:50;;;;;;;1999.90;999.90;;;;;;;11.04;47.71;96589.28;5115378;28;20090;-66
2024/02/04 10:31:18;;;;;;;1999.90;999.90;;;;;;;10.90;48.03;96590.69;5115525;28;20554;-63
2024/02/04 10:33:48;;;;;;;1999.90;999.90;;;;;;;10.82;48.32;96585.75;5115155;28;20048;-68
2024/02/04 10:36:16;;;;;;;1999.90;999.90;;;;;;;10.71;48.82;96598.38;5114966;28;20043;-68
2024/02/04 10:38:43;;;;;;;1999.90;999.90;;;;;;;10.64;48.83;96603.00;5115245;28;20071;-63
2024/02/04 10:41:15;;;;;;;1999.90;999.90;;;;;;;10.58;48.92;96593.63;5103445;28;20402;-66
2024/02/04 10:43:45;;;;;;;1999.90;999.90;;;;;;;10.52;49.09;96603.44;5105213;28;20051;-66
2024/02/04 10:46:17;;;;;;;1999.90;999.90;;;;;;;10.39;50.16;96593.41;5095307;28;20051;-65
2024/02/04 10:48:46;;;;;;;1999.90;999.90;;;;;;;10.34;50.69;96577.03;5107139;28;20077;-69
2024/02/04 10:51:15;;;;;;;1999.90;999.90;;;;;;;10.35;50.43;96570.88;5114865;28;20488;-67
2024/02/04 10:53:44;;;;;;;1999.90;999.90;;;;;;;10.33;50.93;96568.31;5115263;28;20135;-65
2024/02/04 10:56:20;;;;;;;1999.90;999.90;;;;;;;10.30;50.91;96565.81;5114678;28;20493;-67
2024/02/04 10:58:53;;;;;;;1999.90;999.90;;;;;;;10.29;51.54;96564.09;5114849;28;20087;-68
2024/02/04 11:01:23;;;;;;;1999.90;999.90;;;;;;;10.29;51.46;96555.44;5114720;28;20094;-67